Time;durP1;ratioP1;P1;durP2;ratioP2;P2;SDS_P1;SDS_P2;PMS_P1;PMS_P2;Temp;Humidity;BMP_temperature;BMP_pressure;BME280_temperature;BME280_humidity;BME280_pressure;Samples;Min_cycle;Max_cycle;Signal;HPM_P1;HPM_P2
2021/01/17 00:00:29;;;;;;;15.90;7.57;;;-4.10;74.10;;;;;;5108737;28;20126;-66
2021/01/17 00:02:55;;;;;;;10.18;5.57;;;-4.00;74.10;;;;;;5108910;28;20385;-66
2021/01/17 00:05:23;;;;;;;12.00;5.03;;;-3.90;74.80;;;;;;5109125;28;20039;-65
2021/01/17 00:07:50;;;;;;;12.27;4.75;;;-3.90;74.00;;;;;;5108728;28;20093;-64
2021/01/17 00:10:19;;;;;;;11.00;5.63;;;-3.90;73.90;;;;;;5108555;28;20019;-66
2021/01/17 00:12:47;;;;;;;9.25;5.15;;;-3.90;74.40;;;;;;5108914;28;20027;-66
2021/01/17 00:15:13;;;;;;;10.90;5.50;;;-3.90;73.60;;;;;;5089457;28;20024;-66
2021/01/17 00:17:39;;;;;;;15.43;7.38;;;-3.80;73.30;;;;;;5108345;28;20102;-66
2021/01/17 00:20:27;;;;;;;14.68;6.82;;;-3.80;73.30;;;;;;5108875;28;20050;-66
2021/01/17 00:22:54;;;;;;;14.70;6.97;;;-3.80;73.90;;;;;;5108233;28;20039;-66
2021/01/17 00:25:21;;;;;;;10.60;5.53;;;-3.80;73.40;;;;;;5108620;28;20020;-66
2021/01/17 00:27:51;;;;;;;9.60;5.22;;;-3.80;73.50;;;;;;5088189;28;20043;-66
2021/01/17 00:30:20;;;;;;;11.60;5.03;;;-3.80;73.50;;;;;;5087501;28;20028;-66
2021/01/17 00:32:51;;;;;;;10.45;5.03;;;-3.80;73.40;;;;;;5088317;28;20024;-67
2021/01/17 00:35:17;;;;;;;10.32;4.75;;;-3.80;73.20;;;;;;5088113;28;20117;-67
2021/01/17 00:37:43;;;;;;;10.20;5.30;;;-3.90;73.30;;;;;;5087516;28;20115;-66
2021/01/17 00:40:09;;;;;;;11.93;5.78;;;-3.90;73.50;;;;;;5087745;28;20075;-67
2021/01/17 00:42:35;;;;;;;9.38;5.03;;;-3.90;73.60;;;;;;5070048;28;20035;-67
2021/01/17 00:45:01;;;;;;;11.80;5.95;;;-3.90;73.90;;;;;;5087522;28;20501;-65
2021/01/17 00:47:26;;;;;;;11.73;6.10;;;-4.00;73.90;;;;;;5087202;28;20032;-65
2021/01/17 00:49:52;;;;;;;;;;;-4.00;74.00;;;;;;5087979;28;20052;-66
2021/01/17 00:52:19;;;;;;;9.52;4.97;;;-4.00;74.10;;;;;;5087657;28;20287;-67
2021/01/17 00:54:45;;;;;;;10.18;5.15;;;-4.00;74.10;;;;;;5087729;28;20032;-66
2021/01/17 00:57:11;;;;;;;10.20;5.57;;;-4.10;74.20;;;;;;5087532;28;20028;-67
2021/01/17 00:59:36;;;;;;;9.43;5.05;;;-4.10;74.30;;;;;;5068499;28;20650;-67
2021/01/17 01:02:03;;;;;;;9.75;4.70;;;-4.10;74.60;;;;;;5087659;28;20548;-67
2021/01/17 01:04:29;;;;;;;11.02;5.43;;;-4.20;74.70;;;;;;5087491;28;20032;-67
2021/01/17 01:06:54;;;;;;;12.05;5.85;;;-4.10;74.90;;;;;;5069064;28;20029;-68
2021/01/17 01:09:20;;;;;;;9.65;5.25;;;-4.20;75.40;;;;;;5069024;28;20031;-67
2021/01/17 01:11:47;;;;;;;;;;;-4.10;74.70;;;;;;5087940;28;20035;-67
2021/01/17 01:14:12;;;;;;;9.27;5.43;;;-4.10;74.80;;;;;;5087092;28;19930;-67
2021/01/17 01:16:38;;;;;;;12.55;5.60;;;-4.10;74.80;;;;;;5086902;28;20024;-67
2021/01/17 01:19:04;;;;;;;13.00;5.57;;;-4.10;74.80;;;;;;5086779;28;20077;-67
2021/01/17 01:21:30;;;;;;;;;;;-4.10;74.80;;;;;;5087400;28;20396;-67
2021/01/17 01:23:56;;;;;;;11.35;5.72;;;-4.10;74.80;;;;;;5085198;28;20338;-67
2021/01/17 01:26:23;;;;;;;8.52;3.88;;;-4.20;74.80;;;;;;5086930;28;20048;-66
2021/01/17 01:28:57;;;;;;;14.43;6.25;;;-4.20;74.80;;;;;;5085581;28;20485;-67
2021/01/17 01:31:24;;;;;;;13.50;5.65;;;-4.20;75.50;;;;;;5086751;28;20145;-66
2021/01/17 01:33:51;;;;;;;12.10;5.75;;;-4.20;74.80;;;;;;5086902;28;20027;-66
2021/01/17 01:36:24;;;;;;;11.52;6.13;;;-4.20;75.00;;;;;;5086676;28;20077;-67
2021/01/17 01:38:51;;;;;;;22.13;10.07;;;-4.30;75.10;;;;;;5086435;28;20035;-67
2021/01/17 01:41:21;;;;;;;26.88;11.88;;;-4.30;75.20;;;;;;5086892;28;20074;-67
2021/01/17 01:43:47;;;;;;;91.65;31.85;;;-4.30;75.20;;;;;;5068373;28;20747;-67
2021/01/17 01:46:18;;;;;;;79.47;30.23;;;-4.30;75.50;;;;;;5085762;28;20039;-67
2021/01/17 01:48:45;;;;;;;28.30;10.45;;;-4.40;75.60;;;;;;5086384;28;20024;-66
2021/01/17 01:51:14;;;;;;;15.45;8.60;;;-4.50;75.90;;;;;;5086363;28;20028;-67
2021/01/17 01:53:41;;;;;;;22.27;12.50;;;-4.50;76.70;;;;;;5086542;28;20097;-66
2021/01/17 01:56:07;;;;;;;17.85;9.15;;;-4.60;77.00;;;;;;5068361;28;20020;-67
2021/01/17 01:58:33;;;;;;;13.75;7.60;;;-4.60;77.70;;;;;;5068489;28;20035;-67
2021/01/17 02:00:59;;;;;;;13.20;7.85;;;-4.60;78.00;;;;;;5086264;28;20522;-68
2021/01/17 02:03:25;;;;;;;14.57;8.20;;;-4.70;78.40;;;;;;5086193;28;20512;-67
2021/01/17 02:05:51;;;;;;;;;;;-4.70;78.60;;;;;;5087002;28;20064;-68
2021/01/17 02:08:45;;;;;;;12.93;6.63;;;-4.70;79.00;;;;;;5086008;28;19908;-67
2021/01/17 02:11:41;;;;;;;15.57;7.32;;;-4.70;79.20;;;;;;5086461;28;20632;-69
2021/01/17 02:14:19;;;;;;;15.90;7.68;;;-4.60;79.20;;;;;;5085845;28;20031;-68
2021/01/17 02:16:47;;;;;;;13.73;6.53;;;-4.60;79.30;;;;;;5086148;28;20169;-68
2021/01/17 02:19:14;;;;;;;13.32;6.35;;;-4.60;79.00;;;;;;5067937;28;20032;-67
2021/01/17 02:21:45;;;;;;;11.45;6.60;;;-4.50;78.90;;;;;;5086161;28;20051;-67
2021/01/17 02:24:11;;;;;;;12.52;6.05;;;-4.50;78.50;;;;;;5086378;28;20024;-66
2021/01/17 02:26:39;;;;;;;13.07;5.75;;;-4.40;78.20;;;;;;5095220;28;20055;-66
2021/01/17 02:29:07;;;;;;;10.77;5.25;;;-4.30;77.90;;;;;;5087843;28;20096;-67
2021/01/17 02:31:34;;;;;;;8.90;4.57;;;-4.30;77.70;;;;;;5106260;28;20492;-67
2021/01/17 02:34:03;;;;;;;10.02;5.72;;;-4.20;77.30;;;;;;5106165;28;20028;-70
2021/01/17 02:36:47;;;;;;;10.00;5.50;;;-4.10;77.10;;;;;;5107461;28;20774;-67
2021/01/17 02:39:31;;;;;;;10.13;5.55;;;-4.00;76.80;;;;;;5110307;28;20044;-66
2021/01/17 02:42:02;;;;;;;11.50;6.15;;;-4.00;76.50;;;;;;5092017;28;20114;-67
2021/01/17 02:44:30;;;;;;;11.18;6.15;;;-3.90;76.60;;;;;;5110059;28;20039;-67
2021/01/17 02:46:56;;;;;;;10.95;6.05;;;-3.90;76.60;;;;;;5110151;28;20523;-67
2021/01/17 02:49:22;;;;;;;13.57;5.70;;;-3.90;76.60;;;;;;5110641;28;20032;-67
2021/01/17 02:51:49;;;;;;;13.65;6.53;;;-3.80;76.60;;;;;;5110426;28;20055;-66
2021/01/17 02:54:42;;;;;;;18.25;8.68;;;-3.70;76.40;;;;;;5110049;28;20083;-67
2021/01/17 02:57:09;;;;;;;19.80;8.82;;;-3.70;75.70;;;;;;5109763;28;20035;-67
2021/01/17 02:59:41;;;;;;;17.35;9.00;;;-3.70;75.90;;;;;;5109455;28;20063;-66
2021/01/17 03:02:09;;;;;;;15.02;8.00;;;-3.70;75.80;;;;;;5110298;28;20109;-67
2021/01/17 03:04:45;;;;;;;14.20;6.82;;;-3.70;75.80;;;;;;5110227;28;20118;-67
2021/01/17 03:07:13;;;;;;;15.38;7.97;;;-3.80;76.20;;;;;;5109774;28;20066;-67
2021/01/17 03:09:44;;;;;;;13.77;7.50;;;-3.80;76.60;;;;;;5109860;28;20106;-68
2021/01/17 03:12:10;;;;;;;12.18;6.82;;;-3.70;76.90;;;;;;5109744;28;20055;-67
2021/01/17 03:14:36;;;;;;;17.55;8.70;;;-3.70;77.10;;;;;;5109630;28;20092;-67
2021/01/17 03:17:07;;;;;;;14.40;7.63;;;-3.70;77.20;;;;;;5110015;28;20027;-68
2021/01/17 03:19:34;;;;;;;13.95;7.15;;;-3.70;77.00;;;;;;5109452;28;20126;-66
2021/01/17 03:22:00;;;;;;;12.10;6.70;;;-3.70;77.00;;;;;;5109928;28;20383;-67
2021/01/17 03:24:26;;;;;;;12.65;6.72;;;-3.60;76.80;;;;;;5091133;28;20031;-67
2021/01/17 03:26:52;;;;;;;16.00;7.70;;;-3.60;76.50;;;;;;5109384;28;20054;-67
2021/01/17 03:29:17;;;;;;;13.77;7.95;;;-3.60;76.70;;;;;;5109374;28;20047;-67
2021/01/17 03:31:43;;;;;;;18.02;10.23;;;-3.60;77.40;;;;;;5109211;28;20475;-67
2021/01/17 03:34:09;;;;;;;19.23;11.18;;;-3.60;77.50;;;;;;5109811;28;20381;-68
2021/01/17 03:36:34;;;;;;;;;;;-3.50;77.60;;;;;;5109264;28;20501;-67
2021/01/17 03:39:00;;;;;;;22.83;11.73;;;-3.50;77.90;;;;;;5091290;28;19912;-67
2021/01/17 03:41:26;;;;;;;;;;;-3.50;77.50;;;;;;5110137;28;20028;-67
2021/01/17 03:43:51;;;;;;;20.77;10.50;;;-3.50;78.30;;;;;;5108536;28;19958;-66
2021/01/17 03:46:17;;;;;;;;;;;-3.50;78.20;;;;;;5109969;28;20028;-68
2021/01/17 03:48:42;;;;;;;23.50;11.93;;;-3.50;78.90;;;;;;5090640;28;19994;-67
2021/01/17 03:51:08;;;;;;;;;;;-3.50;79.00;;;;;;5109964;28;20741;-67
2021/01/17 03:53:34;;;;;;;17.13;9.02;;;-3.50;79.40;;;;;;5109312;28;20267;-66
2021/01/17 03:55:59;;;;;;;;;;;-3.60;80.10;;;;;;5109484;28;20028;-67
2021/01/17 03:58:25;;;;;;;16.02;8.57;;;-3.60;80.00;;;;;;5108566;28;19912;-67
2021/01/17 04:00:50;;;;;;;18.77;9.10;;;-3.60;80.00;;;;;;5090394;28;20047;-66
2021/01/17 04:03:16;;;;;;;;;;;-3.70;80.10;;;;;;5109409;28;20759;-66
2021/01/17 04:05:42;;;;;;;19.45;9.15;;;-3.70;80.50;;;;;;5090132;28;20300;-66
2021/01/17 04:08:07;;;;;;;;;;;-3.80;80.40;;;;;;5109617;28;20039;-67
2021/01/17 04:10:33;;;;;;;11.38;6.95;;;-3.90;80.90;;;;;;5108584;28;19907;-67
2021/01/17 04:12:58;;;;;;;;;;;-4.00;81.00;;;;;;5109133;28;20066;-66
2021/01/17 04:15:24;;;;;;;15.40;7.88;;;-4.10;81.50;;;;;;5109057;28;19907;-66
2021/01/17 04:17:49;;;;;;;;;;;-4.20;81.80;;;;;;5109081;28;20035;-66
2021/01/17 04:20:15;;;;;;;16.02;7.70;;;-4.30;82.10;;;;;;5108869;28;19922;-66
2021/01/17 04:22:41;;;;;;;13.20;5.97;;;-4.40;82.10;;;;;;5108875;28;20030;-67
2021/01/17 04:25:08;;;;;;;14.25;7.82;;;-4.50;82.10;;;;;;5090024;28;20035;-66
2021/01/17 04:27:33;;;;;;;11.30;6.50;;;-4.60;82.50;;;;;;5108172;28;20051;-67
2021/01/17 04:29:59;;;;;;;14.07;6.78;;;-4.60;82.60;;;;;;5108322;28;20084;-67
2021/01/17 04:32:25;;;;;;;13.02;6.97;;;-4.70;83.20;;;;;;5108446;28;20510;-67
2021/01/17 04:34:51;;;;;;;14.73;7.72;;;-4.70;83.80;;;;;;5108535;28;20032;-68
2021/01/17 04:37:24;;;;;;;14.90;7.47;;;-4.80;84.10;;;;;;5108864;28;20388;-66
2021/01/17 04:39:51;;;;;;;16.50;8.32;;;-4.80;84.10;;;;;;5108384;28;20035;-67
2021/01/17 04:42:19;;;;;;;18.10;9.30;;;-4.80;84.50;;;;;;5089771;28;20442;-67
2021/01/17 04:44:52;;;;;;;25.35;13.43;;;-4.80;84.50;;;;;;5090507;28;20345;-67
2021/01/17 04:47:19;;;;;;;26.42;14.27;;;-4.80;84.40;;;;;;5108150;28;20036;-67
2021/01/17 04:49:48;;;;;;;19.65;11.25;;;-4.90;84.00;;;;;;5107742;28;20052;-67
2021/01/17 04:52:14;;;;;;;22.58;13.13;;;-4.80;83.50;;;;;;5107942;28;20503;-67
2021/01/17 04:54:41;;;;;;;32.42;19.23;;;-4.80;83.10;;;;;;5107611;28;20463;-66
2021/01/17 04:57:21;;;;;;;24.67;15.13;;;-4.70;83.30;;;;;;5107722;28;20265;-67
2021/01/17 05:00:05;;;;;;;20.65;12.20;;;-4.60;82.20;;;;;;5106416;28;20038;-67
2021/01/17 05:03:12;;;;;;;21.52;12.52;;;-4.50;82.10;;;;;;5107526;28;20119;-67
2021/01/17 05:05:52;;;;;;;26.92;14.23;;;-4.50;82.50;;;;;;5107710;28;20100;-67
2021/01/17 05:08:26;;;;;;;23.52;12.65;;;-4.40;81.80;;;;;;5107574;28;20116;-67
2021/01/17 05:11:06;;;;;;;19.42;11.30;;;-4.30;81.30;;;;;;5107701;28;20019;-67
2021/01/17 05:13:47;;;;;;;20.25;10.13;;;-4.30;80.90;;;;;;5107189;28;20035;-67
2021/01/17 05:16:14;;;;;;;20.38;9.98;;;-4.20;80.50;;;;;;5106970;28;20519;-67
2021/01/17 05:18:46;;;;;;;23.13;13.38;;;-4.20;80.20;;;;;;5089063;28;20648;-67
2021/01/17 05:21:20;;;;;;;21.33;12.63;;;-4.10;79.90;;;;;;5107043;28;20100;-65
2021/01/17 05:23:47;;;;;;;22.05;12.75;;;-4.10;79.60;;;;;;5107637;28;20020;-67
2021/01/17 05:26:13;;;;;;;18.90;10.75;;;-4.00;79.50;;;;;;5106979;28;20082;-66
2021/01/17 05:28:39;;;;;;;19.27;10.60;;;-4.00;79.40;;;;;;5107245;28;20037;-67
2021/01/17 05:31:05;;;;;;;22.30;12.05;;;-3.90;79.20;;;;;;5107041;28;20038;-67
2021/01/17 05:33:32;;;;;;;19.52;10.55;;;-3.90;79.10;;;;;;5106968;28;20028;-67
2021/01/17 05:36:00;;;;;;;17.98;8.95;;;-3.90;78.60;;;;;;5107374;28;20084;-68
2021/01/17 05:38:26;;;;;;;53.28;20.10;;;-3.90;78.80;;;;;;5107251;28;20055;-68
2021/01/17 05:40:52;;;;;;;43.03;17.58;;;-4.00;78.90;;;;;;5088961;28;20047;-69
2021/01/17 05:43:18;;;;;;;19.50;9.10;;;-4.10;79.50;;;;;;5106554;28;20357;-69
2021/01/17 05:45:44;;;;;;;56.08;21.48;;;-4.10;79.70;;;;;;5107050;28;20483;-69
2021/01/17 05:48:10;;;;;;;36.15;15.48;;;-4.20;80.00;;;;;;5106836;28;20038;-68
2021/01/17 05:50:37;;;;;;;32.50;15.02;;;-4.20;80.20;;;;;;5107163;28;20487;-66
2021/01/17 05:53:06;;;;;;;21.63;10.75;;;-4.30;80.60;;;;;;5106367;28;20063;-67
2021/01/17 05:55:34;;;;;;;20.92;9.70;;;-4.30;80.90;;;;;;5106519;28;20114;-67
2021/01/17 05:58:31;;;;;;;20.83;9.77;;;-4.30;81.50;;;;;;5106503;28;20456;-67
2021/01/17 06:00:59;;;;;;;15.40;9.23;;;-4.40;82.00;;;;;;5088437;28;20031;-67
2021/01/17 06:03:29;;;;;;;23.17;11.00;;;-4.30;82.30;;;;;;5106758;28;20034;-67
2021/01/17 06:06:00;;;;;;;22.75;12.32;;;-4.30;82.20;;;;;;5106840;28;20041;-67
2021/01/17 06:08:27;;;;;;;18.35;10.18;;;-4.30;82.40;;;;;;5105480;28;20028;-67
2021/01/17 06:10:55;;;;;;;22.05;11.15;;;-4.40;82.50;;;;;;5106468;28;20024;-67
2021/01/17 06:13:25;;;;;;;22.75;11.07;;;-4.40;83.00;;;;;;5106417;28;20369;-68
2021/01/17 06:15:52;;;;;;;32.70;15.10;;;-4.40;82.70;;;;;;5106405;28;20541;-67
2021/01/17 06:18:19;;;;;;;123.50;61.90;;;-4.30;82.00;;;;;;5088454;28;20091;-67
2021/01/17 06:20:46;;;;;;;141.05;70.22;;;-4.20;80.70;;;;;;5106044;28;20031;-67
2021/01/17 06:23:18;;;;;;;166.88;84.10;;;-4.20;81.00;;;;;;5088034;28;20084;-66
2021/01/17 06:25:44;;;;;;;134.13;66.70;;;-4.20;81.30;;;;;;5087984;28;20044;-66
2021/01/17 06:28:12;;;;;;;75.40;38.53;;;-4.20;81.60;;;;;;5087490;28;20019;-67
2021/01/17 06:30:38;;;;;;;39.80;19.13;;;-4.20;82.00;;;;;;5106637;28;20554;-66
2021/01/17 06:33:05;;;;;;;36.47;16.98;;;-4.10;81.90;;;;;;5106466;28;20518;-67
2021/01/17 06:35:37;;;;;;;80.38;37.00;;;-4.10;81.70;;;;;;5106373;28;20506;-67
2021/01/17 06:38:17;;;;;;;24.15;12.60;;;-4.00;81.10;;;;;;5106375;28;20434;-67
2021/01/17 06:40:45;;;;;;;23.45;11.05;;;-3.90;80.20;;;;;;5106311;28;20040;-67
2021/01/17 06:43:11;;;;;;;18.00;9.93;;;-4.00;80.30;;;;;;5105518;28;20038;-66
2021/01/17 06:45:45;;;;;;;16.35;8.35;;;-4.00;81.00;;;;;;5105985;28;20065;-67
2021/01/17 06:48:24;;;;;;;17.25;8.90;;;-4.00;81.70;;;;;;5106083;28;20809;-66
2021/01/17 06:50:50;;;;;;;20.35;9.52;;;-4.00;82.10;;;;;;5106401;28;20316;-67
2021/01/17 06:53:23;;;;;;;16.02;9.02;;;-4.00;82.50;;;;;;5106524;28;20024;-66
2021/01/17 06:56:09;;;;;;;25.42;11.50;;;-4.00;82.60;;;;;;5105625;28;20031;-67
2021/01/17 06:58:39;;;;;;;19.45;10.05;;;-4.00;83.00;;;;;;5106489;28;20096;-66
2021/01/17 07:01:05;;;;;;;18.73;10.00;;;-4.00;83.50;;;;;;5105711;28;20039;-67
2021/01/17 07:03:51;;;;;;;18.00;8.73;;;-4.00;83.40;;;;;;5106120;28;20027;-67
2021/01/17 07:06:45;;;;;;;17.02;9.50;;;-4.00;83.70;;;;;;5106366;28;20032;-68
2021/01/17 07:09:31;;;;;;;24.10;12.85;;;-4.10;83.60;;;;;;5098814;28;20085;-66
2021/01/17 07:12:18;;;;;;;19.40;8.97;;;-4.00;83.90;;;;;;5106526;28;20035;-68
2021/01/17 07:14:56;;;;;;;18.17;9.63;;;-3.90;83.90;;;;;;5088556;28;20027;-68
2021/01/17 07:17:29;;;;;;;24.15;11.73;;;-3.90;83.70;;;;;;5106499;28;20089;-68
2021/01/17 07:20:00;;;;;;;21.95;11.55;;;-3.90;83.80;;;;;;5105620;28;20122;-66
2021/01/17 07:22:27;;;;;;;17.20;9.55;;;-3.90;84.00;;;;;;5106434;28;20602;-67
2021/01/17 07:24:55;;;;;;;20.65;9.60;;;-3.90;83.70;;;;;;5109803;28;20028;-67
2021/01/17 07:27:38;;;;;;;38.15;17.52;;;-3.90;83.50;;;;;;5108862;28;20098;-66
2021/01/17 07:30:04;;;;;;;23.08;12.25;;;-3.70;82.40;;;;;;5109305;28;20023;-66
2021/01/17 07:32:35;;;;;;;23.45;10.85;;;-3.50;81.40;;;;;;5091283;28;20019;-68
2021/01/17 07:35:07;;;;;;;32.03;15.82;;;-3.30;80.30;;;;;;5109187;28;20039;-67
2021/01/17 07:37:33;;;;;;;26.77;13.23;;;-3.10;79.20;;;;;;5109268;28;20495;-66
2021/01/17 07:40:04;;;;;;;44.53;20.55;;;-3.10;78.70;;;;;;5109268;28;20515;-66
2021/01/17 07:42:34;;;;;;;34.95;16.05;;;-3.10;79.00;;;;;;5109109;28;20020;-66
2021/01/17 07:45:16;;;;;;;38.25;17.50;;;-3.00;78.90;;;;;;5109211;28;20592;-67
2021/01/17 07:47:43;;;;;;;42.15;23.73;;;-3.00;78.80;;;;;;5109272;28;20069;-66
2021/01/17 07:50:10;;;;;;;24.73;14.65;;;-2.80;78.60;;;;;;5109001;28;20034;-65
2021/01/17 07:52:41;;;;;;;23.67;13.88;;;-2.80;78.20;;;;;;5109453;28;20030;-66
2021/01/17 07:55:12;;;;;;;20.35;11.93;;;-2.80;78.40;;;;;;5108819;28;20053;-67
2021/01/17 07:57:37;;;;;;;20.67;11.68;;;-2.80;78.60;;;;;;5108908;28;20031;-67
2021/01/17 08:00:07;;;;;;;19.92;11.05;;;-2.80;78.60;;;;;;5108771;28;20035;-66
2021/01/17 08:02:35;;;;;;;25.55;12.90;;;-2.80;78.90;;;;;;5091055;28;20028;-66
2021/01/17 08:05:02;;;;;;;39.67;20.05;;;-2.70;79.30;;;;;;5108703;28;20111;-67
2021/01/17 08:07:32;;;;;;;24.90;13.25;;;-2.60;78.70;;;;;;5108679;28;20118;-67
2021/01/17 08:09:59;;;;;;;20.90;11.43;;;-2.40;78.10;;;;;;5090008;28;20023;-67
2021/01/17 08:12:54;;;;;;;30.20;13.32;;;-2.40;77.90;;;;;;5109133;28;20841;-66
2021/01/17 08:15:22;;;;;;;26.27;11.85;;;-2.40;76.90;;;;;;5094808;28;20067;-67
2021/01/17 08:17:48;;;;;;;28.60;11.57;;;-2.50;77.50;;;;;;5109077;28;20106;-67
2021/01/17 08:20:28;;;;;;;23.63;11.27;;;-2.50;77.70;;;;;;5108906;28;20036;-66
2021/01/17 08:23:05;;;;;;;20.52;10.52;;;-2.40;77.20;;;;;;5090401;28;20035;-67
2021/01/17 08:25:55;;;;;;;21.55;11.93;;;-2.40;77.40;;;;;;5107681;28;20027;-66
2021/01/17 08:28:36;;;;;;;22.67;11.70;;;-2.50;77.90;;;;;;5108261;28;20088;-66
2021/01/17 08:31:22;;;;;;;22.17;11.88;;;-2.50;78.40;;;;;;5089882;28;20035;-67
2021/01/17 08:33:48;;;;;;;32.50;17.75;;;-2.50;78.20;;;;;;5107523;28;20053;-67
2021/01/17 08:36:26;;;;;;;;;;;-2.40;78.10;;;;;;5108973;28;20031;-66
2021/01/17 08:38:51;;;;;;;22.88;13.25;;;-2.30;77.80;;;;;;5108314;28;19994;-66
2021/01/17 08:41:25;;;;;;;;;;;-2.20;77.50;;;;;;5107738;28;20433;-65
2021/01/17 08:43:52;;;;;;;26.08;12.95;;;-2.10;76.70;;;;;;5108326;28;19911;-66
2021/01/17 08:46:32;;;;;;;25.95;11.93;;;-2.10;76.70;;;;;;5107962;28;20015;-66
2021/01/17 08:48:58;;;;;;;18.95;8.88;;;-2.10;77.30;;;;;;5108396;28;20141;-66
2021/01/17 08:51:24;;;;;;;;;;;-2.20;76.10;;;;;;5108136;28;20734;-65
2021/01/17 08:53:50;;;;;;;22.65;10.60;;;-2.10;76.40;;;;;;5108084;28;19914;-65
2021/01/17 08:56:18;;;;;;;;;;;-2.00;76.00;;;;;;5108193;28;20031;-65
2021/01/17 08:58:47;;;;;;;27.00;10.38;;;-1.80;75.10;;;;;;5107803;28;19914;-66
2021/01/17 09:01:14;;;;;;;17.08;9.35;;;-1.60;73.90;;;;;;5107983;28;20040;-66
2021/01/17 09:03:43;;;;;;;15.50;7.93;;;-1.20;73.70;;;;;;5107358;28;20026;-66
2021/01/17 09:06:11;;;;;;;25.08;12.00;;;-0.70;71.40;;;;;;5108101;28;20103;-65
2021/01/17 09:08:39;;;;;;;27.63;16.05;;;-0.50;69.70;;;;;;5107487;28;20500;-66
2021/01/17 09:11:25;;;;;;;22.15;8.55;;;-0.20;68.40;;;;;;5107137;28;20067;-65
2021/01/17 09:14:13;;;;;;;30.05;18.85;;;0.20;67.10;;;;;;5089114;28;20028;-65
2021/01/17 09:16:42;;;;;;;13.50;7.53;;;0.30;65.40;;;;;;5089323;28;20039;-64
2021/01/17 09:19:08;;;;;;;14.93;8.38;;;0.30;64.90;;;;;;5107572;28;20467;-65
2021/01/17 09:21:35;;;;;;;15.88;9.00;;;0.30;64.50;;;;;;5088783;28;20027;-65
2021/01/17 09:24:12;;;;;;;16.00;10.18;;;0.40;65.30;;;;;;5107294;28;20043;-64
2021/01/17 09:26:46;;;;;;;24.60;14.20;;;0.50;66.30;;;;;;5106818;28;20055;-66
2021/01/17 09:29:25;;;;;;;21.60;12.95;;;0.80;65.50;;;;;;5107350;28;20058;-66
2021/01/17 09:31:53;;;;;;;24.83;14.95;;;1.00;64.80;;;;;;5107523;28;20533;-67
2021/01/17 09:34:25;;;;;;;26.10;14.38;;;1.10;64.40;;;;;;5107593;28;20454;-66
2021/01/17 09:36:51;;;;;;;26.48;13.85;;;1.20;63.60;;;;;;5107103;28;20019;-65
2021/01/17 09:39:32;;;;;;;;;;;1.10;63.30;;;;;;5107210;28;20050;-66
2021/01/17 09:41:59;;;;;;;24.75;12.35;;;1.00;63.90;;;;;;5107264;28;20007;-67
2021/01/17 09:44:25;;;;;;;25.65;13.60;;;0.90;64.40;;;;;;5106719;28;20498;-67
2021/01/17 09:46:50;;;;;;;;;;;0.80;64.10;;;;;;5088781;28;20028;-66
2021/01/17 09:49:21;;;;;;;19.80;11.05;;;0.70;64.20;;;;;;5088402;28;19926;-67
2021/01/17 09:51:47;;;;;;;25.20;13.98;;;0.70;64.60;;;;;;5106868;28;20026;-67
2021/01/17 09:54:12;;;;;;;;;;;0.70;64.30;;;;;;5107255;28;20027;-66
2021/01/17 09:56:43;;;;;;;41.22;26.45;;;0.70;64.80;;;;;;5088596;28;19961;-68
2021/01/17 09:59:16;;;;;;;59.95;32.45;;;0.80;64.50;;;;;;5106776;28;20042;-66
2021/01/17 10:01:43;;;;;;;33.00;17.85;;;0.70;63.90;;;;;;5106824;28;20101;-67
2021/01/17 10:04:26;;;;;;;32.50;19.48;;;0.50;63.20;;;;;;5107088;28;20030;-69
2021/01/17 10:06:53;;;;;;;22.42;14.80;;;0.40;64.60;;;;;;5106878;28;20042;-68
2021/01/17 10:09:23;;;;;;;16.15;10.18;;;0.30;65.80;;;;;;5106116;28;20047;-68
2021/01/17 10:11:57;;;;;;;28.35;15.43;;;0.30;66.10;;;;;;5106653;28;20035;-68
2021/01/17 10:14:25;;;;;;;36.95;20.25;;;0.30;66.50;;;;;;5106539;28;20015;-68
2021/01/17 10:16:53;;;;;;;45.42;23.27;;;0.20;65.90;;;;;;5106170;28;20116;-65
2021/01/17 10:19:23;;;;;;;23.90;11.13;;;0.00;65.40;;;;;;5106491;28;20373;-66
2021/01/17 10:21:49;;;;;;;33.38;20.10;;;-0.20;65.60;;;;;;5106642;28;20437;-66
2021/01/17 10:24:19;;;;;;;;;;;-0.40;66.80;;;;;;5106310;28;20066;-65
2021/01/17 10:26:48;;;;;;;31.23;15.68;;;-0.60;67.30;;;;;;5106435;28;19937;-66
2021/01/17 10:29:18;;;;;;;22.50;11.10;;;-0.60;68.30;;;;;;5106345;28;20027;-65
2021/01/17 10:31:49;;;;;;;16.33;9.57;;;-0.60;68.30;;;;;;5106501;28;20642;-66
2021/01/17 10:34:22;;;;;;;17.80;9.27;;;-0.70;68.50;;;;;;5106769;28;20035;-66
2021/01/17 10:36:49;;;;;;;21.02;11.65;;;-0.60;68.80;;;;;;5088160;28;20028;-68
2021/01/17 10:39:19;;;;;;;19.58;11.75;;;-0.60;69.90;;;;;;5105626;28;20515;-67
2021/01/17 10:41:46;;;;;;;23.23;14.32;;;-0.40;69.90;;;;;;5106106;28;20191;-67
2021/01/17 10:44:15;;;;;;;42.47;19.80;;;-0.30;69.60;;;;;;5106147;28;20042;-68
2021/01/17 10:46:44;;;;;;;22.20;13.95;;;-0.10;69.60;;;;;;5106553;28;20036;-67
2021/01/17 10:49:17;;;;;;;24.52;15.07;;;0.00;69.20;;;;;;5106412;28;20027;-68
2021/01/17 10:51:52;;;;;;;21.85;14.93;;;0.00;69.00;;;;;;5105959;28;20035;-68
2021/01/17 10:54:31;;;;;;;30.98;17.60;;;0.00;65.90;;;;;;5105638;28;20028;-68
2021/01/17 10:57:02;;;;;;;44.40;23.40;;;-0.10;66.90;;;;;;5106395;28;20126;-68
2021/01/17 10:59:29;;;;;;;23.70;13.45;;;-0.20;67.50;;;;;;5110215;28;20031;-67
2021/01/17 11:01:54;;;;;;;29.70;16.92;;;-0.20;68.20;;;;;;5110150;28;20039;-67
2021/01/17 11:04:20;;;;;;;;;;;-0.20;68.50;;;;;;5110435;28;20435;-68
2021/01/17 11:06:46;;;;;;;20.90;10.18;;;-0.10;65.40;;;;;;5110094;28;19911;-68
2021/01/17 11:09:14;;;;;;;24.40;14.10;;;-0.10;65.00;;;;;;5091494;28;20388;-68
2021/01/17 11:11:45;;;;;;;34.03;18.17;;;0.10;62.90;;;;;;5109864;28;20027;-67
2021/01/17 11:14:11;;;;;;;18.63;11.05;;;-0.20;64.30;;;;;;5108952;28;20156;-67
2021/01/17 11:16:43;;;;;;;22.95;11.57;;;-0.30;64.30;;;;;;5109922;28;20759;-66
2021/01/17 11:19:13;;;;;;;30.17;15.35;;;-0.20;64.10;;;;;;5109874;28;20399;-66
2021/01/17 11:21:41;;;;;;;22.42;13.43;;;-0.30;65.10;;;;;;5109145;28;20106;-66
2021/01/17 11:24:07;;;;;;;19.85;11.73;;;-0.30;65.00;;;;;;5091672;28;20454;-68
2021/01/17 11:26:33;;;;;;;25.13;13.30;;;-0.30;65.00;;;;;;5091483;28;20435;-69
2021/01/17 11:28:59;;;;;;;;;;;-0.20;65.20;;;;;;5110275;28;20020;-67
2021/01/17 11:31:26;;;;;;;15.90;9.83;;;-0.30;63.80;;;;;;5109733;28;19904;-66
2021/01/17 11:33:52;;;;;;;25.50;12.88;;;-0.40;63.90;;;;;;5109936;28;20459;-68
2021/01/17 11:36:19;;;;;;;;;;;-0.30;64.20;;;;;;5109708;28;20059;-67
2021/01/17 11:38:57;;;;;;;43.90;16.52;;;-0.40;63.40;;;;;;5109300;28;19915;-67
2021/01/17 11:41:31;;;;;;;27.50;12.65;;;-0.50;62.80;;;;;;5109351;28;20478;-68
2021/01/17 11:44:17;;;;;;;16.80;9.45;;;-0.60;63.10;;;;;;5109740;28;20028;-64
2021/01/17 11:46:44;;;;;;;19.80;12.18;;;-0.70;64.00;;;;;;5091067;28;20036;-67
2021/01/17 11:49:10;;;;;;;22.38;12.73;;;-0.60;63.70;;;;;;5109444;28;20028;-66
2021/01/17 11:51:37;;;;;;;23.40;12.57;;;-0.50;65.30;;;;;;5109943;28;20540;-66
2021/01/17 11:54:13;;;;;;;19.17;11.80;;;-0.40;68.00;;;;;;5108547;28;20032;-66
2021/01/17 11:56:40;;;;;;;22.10;12.13;;;-0.30;68.90;;;;;;5108962;28;20055;-67
2021/01/17 11:59:06;;;;;;;24.95;14.50;;;-0.30;68.90;;;;;;5109141;28;20023;-66
2021/01/17 12:01:31;;;;;;;;;;;-0.30;69.50;;;;;;5090860;28;20377;-66
2021/01/17 12:04:01;;;;;;;19.75;12.65;;;-0.40;69.60;;;;;;5109177;28;19998;-66
2021/01/17 12:06:27;;;;;;;21.88;12.80;;;-0.40;70.40;;;;;;5109008;28;20037;-66
2021/01/17 12:09:08;;;;;;;22.63;12.80;;;-0.50;70.80;;;;;;5107736;28;20106;-66
2021/01/17 12:11:34;;;;;;;21.80;13.55;;;-0.70;71.60;;;;;;5090496;28;20042;-66
2021/01/17 12:14:01;;;;;;;;;;;-0.80;72.40;;;;;;5109056;28;20262;-66
2021/01/17 12:16:30;;;;;;;25.38;13.57;;;-0.90;73.50;;;;;;5108860;28;19903;-65
2021/01/17 12:18:57;;;;;;;25.67;13.48;;;-1.00;73.80;;;;;;5108457;28;20102;-66
2021/01/17 12:21:23;;;;;;;21.58;12.48;;;-1.00;73.90;;;;;;5108893;28;20038;-66
2021/01/17 12:23:49;;;;;;;23.90;14.15;;;-1.10;74.40;;;;;;5108151;28;20515;-65
2021/01/17 12:26:16;;;;;;;;;;;-1.20;74.40;;;;;;5108557;28;20051;-65
2021/01/17 12:28:42;;;;;;;24.70;15.07;;;-1.20;75.10;;;;;;5108794;28;19908;-66
2021/01/17 12:31:11;;;;;;;;;;;-1.20;75.00;;;;;;5109207;28;20036;-65
2021/01/17 12:33:36;;;;;;;22.48;13.38;;;-1.20;75.30;;;;;;5108512;28;19914;-65
2021/01/17 12:36:04;;;;;;;;;;;-1.20;75.50;;;;;;5108448;28;20028;-65
2021/01/17 12:38:30;;;;;;;32.05;17.15;;;-1.30;75.50;;;;;;5108061;28;19915;-66
2021/01/17 12:40:55;;;;;;;;;;;-1.30;75.40;;;;;;5108438;28;20040;-65
2021/01/17 12:43:21;;;;;;;33.90;19.00;;;-1.30;75.50;;;;;;5108418;28;19907;-65
2021/01/17 12:45:46;;;;;;;;;;;-1.40;75.70;;;;;;5108468;28;20035;-65
2021/01/17 12:48:12;;;;;;;28.00;16.15;;;-1.30;75.80;;;;;;5108457;28;19907;-65
2021/01/17 12:50:37;;;;;;;;;;;-1.30;75.70;;;;;;5108226;28;20028;-66
2021/01/17 12:53:03;;;;;;;34.05;18.17;;;-1.30;75.60;;;;;;5107826;28;19918;-66
2021/01/17 12:55:29;;;;;;;;;;;-1.20;75.30;;;;;;5108584;28;20066;-66